Sutherland Springs, TX (78161)

12:11 PM CDT on March 30, 2015 (GMT -0500)
Lake Valley Dr. | | Change Station
CLOSE
Current Station
Personal Weather Station
Location: La Vernia, TX
Elevation: 597 ft
Nearby Weather Stations

Elev 597 ft 29.35 °N, 98.04 °W | Updated 14 minutes ago

Overcast
Overcast
71.4 °F
Feels Like 70 °F
N
6.0
Wind Variable Wind from SSW
Gusts 11.0 mph

Today
High -- | Low -- °F
--% Chance of Precip.
Yesterday
High -- | Low -- °F
Precip. -- in
7:24 AM 7:49 PM
Waxing Gibbous, 81% visible
Pressure 30.19 in
Visibility 10.0 miles
Clouds Overcast 1800 ft
Heat Index 70 °F
Dew Point 67 °F
Humidity 85%
Rainfall 0.00 in
Snow Depth Not available.
UV 3 out of 12
Pollen 10.90 out of 12
Air Quality Not available.
Flu Activity Not available.
METAR KRND 301658Z 20008KT 10SM OVC018 21/17 A3020 RMK AO2A SLP222 T02070173

More Conditions Fewer Conditions

Pressure 30.19 in
Visibility 10.0 miles
Clouds Overcast 1800 ft
Heat Index 70 °F
Dew Point 67 °F
Humidity 85%
Rainfall 0.00 in
Snow Depth Not available.
UV 3 out of 12
Pollen 10.90 out of 12
Air Quality Not available.
Flu Activity Not available.
METAR KRND 301658Z 20008KT 10SM OVC018 21/17 A3020 RMK AO2A SLP222 T02070173

More Conditions Fewer Conditions

10-Day Weather Forecast

Almanac

Astronomy

Mar. 30, 2015 Rise Set
Actual Time
Civil Twilight
Nautical Twilight
Astronomical Twilight
Moon
Length of Visible Light
Length of Day
Tomorrow will be .
, % of the Moon is Illuminated

Today's Extremes

State Highs State Lows

Community

WunderPhotos

Upload Photos

1,809,542 photos uploaded!

WunderBlogs® & News

Nearby

Air Quality

  Air Quality AQ Index Pollutant
Not available.

Snow Depth

Station Depth Elevation

Earthquake Activity

City Distance Mag. Time & Date
Minimum magnitude displayed is 2.5.

Coastal Water Temperatures

Place Temperature

Stations

Nearby Weather Stations

Station Location Temp. Windchill Dew Point Humidity Wind Precip. Elev Updated Type